Weather History for KRGK - June, 2014

Change the Weather History Date:

Tuesday, June 3, 2014

  Actual Average Record
Temperature  
Mean Temperature 68 °F -  
Max Temperature 78 °F 70 °F 93 °F (2011)
Min Temperature 57 °F 49 °F 39 °F (2001)
Cooling Degree Days 2    
Growing Degree Days 18 (Base 50)    
Moisture  
Dew Point 50 °F    
Average Humidity 58    
Maximum Humidity 88    
Minimum Humidity 32    
Precipitation  
Precipitation 0.00 in - - ()
Sea Level Pressure  
Sea Level Pressure 29.90 in    
Wind  
Wind Speed 9 mph (WNW)    
Max Wind Speed 15 mph    
Max Gust Speed 23 mph    
Visibility 10 miles    
Events      
Averages and records for this station are not official NWS values.
T = Trace of Precipitation, MM = Missing Value Source: NWS Daily Summary

Daily Weather History Graph

Daily Weather History Graph

Search for Another Location

Airport or City:

Trip Planner

Search our weather history database for the weather conditions in past years. The results will help you decide how hot, cold, wet, or windy it might be!

Date:

Astronomy

Jun. 03, 2014 Rise Set
Actual Time 5:26 AM CDT 8:49 PM CDT
Civil Twilight 4:50 AM CDT 9:25 PM CDT
Nautical Twilight 4:03 AM CDT 10:13 PM CDT
Astronomical Twilight 3:04 AM CDT 11:12 PM CDT
Moon 10:59 AM CDT (6/3) 12:09 AM CDT (6/3)
Length of Visible Light 16h 34m
Length of Day
15h 22m
Waxing Crescent, 30% of the Moon is Illuminated
Jun 3
Waxing Crescent
Jun 5
First Quarter
Jun 12
Full
Jun 19
Last Quarter
Jun 27
New

Hourly Weather History & Observations

Time (CDT) Temp. Dew Point Humidity Pressure Visibility Wind Dir Wind Speed Gust Speed Precip Events Conditions
12:15 AM 62.6 °F 50.0 °F 63% 29.82 in 10.0 mi WNW 12.7 mph 18.4 mph N/A   Clear
12:35 AM 62.6 °F 50.0 °F 63% 29.82 in 10.0 mi WNW 13.8 mph 18.4 mph N/A   Clear
12:55 AM 62.6 °F 51.8 °F 68% 29.83 in 10.0 mi WNW 15.0 mph 23.0 mph N/A   Clear
1:15 AM 62.6 °F 51.8 °F 68% 29.83 in 10.0 mi WNW 10.4 mph 13.8 mph N/A   Clear
1:35 AM 62.6 °F 51.8 °F 68% 29.83 in 10.0 mi WNW 13.8 mph 23.0 mph N/A   Clear
1:55 AM 62.6 °F 51.8 °F 68% 29.84 in 10.0 mi WNW 12.7 mph 19.6 mph N/A   Clear
2:14 AM 60.8 °F 48.2 °F 63% 29.85 in 10.0 mi NW 12.7 mph 18.4 mph N/A   Clear
2:35 AM 60.8 °F 48.2 °F 63% 29.86 in 10.0 mi NW 5.8 mph - N/A   Clear
2:55 AM 60.8 °F 48.2 °F 63% 29.86 in 10.0 mi WNW 13.8 mph 21.9 mph N/A   Clear
3:14 AM 60.8 °F 48.2 °F 63% 29.86 in 10.0 mi WNW 10.4 mph 19.6 mph N/A   Clear
3:35 AM 60.8 °F 48.2 °F 63% 29.86 in 10.0 mi WNW 9.2 mph 18.4 mph N/A   Clear
3:55 AM 59.0 °F 50.0 °F 72% 29.87 in 10.0 mi NW 9.2 mph 18.4 mph N/A   Clear
4:14 AM 59.0 °F 50.0 °F 72% 29.88 in 10.0 mi NW 6.9 mph - N/A   Clear
4:35 AM 59.0 °F 48.2 °F 67% 29.89 in 10.0 mi NW 8.1 mph - N/A   Clear
4:55 AM 57.2 °F 48.2 °F 72% 29.89 in 10.0 mi WNW 8.1 mph - N/A   Clear
5:15 AM 57.2 °F 48.2 °F 72% 29.90 in 10.0 mi WNW 8.1 mph - N/A   Clear
5:35 AM 57.2 °F 48.2 °F 72% 29.91 in 10.0 mi WNW 5.8 mph - N/A   Clear
5:55 AM 57.2 °F 48.2 °F 72% 29.92 in 10.0 mi West 4.6 mph - N/A   Clear
6:15 AM 57.2 °F 50.0 °F 77% 29.92 in 10.0 mi West 3.5 mph - N/A   Clear
6:35 AM 59.0 °F 51.8 °F 77% 29.93 in 10.0 mi Calm Calm - N/A   Clear
6:55 AM 60.8 °F 51.8 °F 72% 29.93 in 10.0 mi WNW 4.6 mph - N/A   Clear
7:15 AM 60.8 °F 51.8 °F 72% 29.94 in 10.0 mi West 8.1 mph - N/A   Clear
7:35 AM 62.6 °F 51.8 °F 68% 29.95 in 10.0 mi West 8.1 mph - N/A   Clear
7:55 AM 62.6 °F 51.8 °F 68% 29.95 in 10.0 mi West 9.2 mph - N/A   Clear
8:15 AM 62.6 °F 51.8 °F 68% 29.95 in 10.0 mi West 8.1 mph - N/A   Clear
8:35 AM 64.4 °F 51.8 °F 64% 29.95 in 10.0 mi West 6.9 mph - N/A   Clear
8:55 AM 64.4 °F 51.8 °F 64% 29.96 in 10.0 mi WNW 8.1 mph - N/A   Clear
9:15 AM 66.2 °F 51.8 °F 60% 29.97 in 10.0 mi WNW 8.1 mph - N/A   Clear
9:35 AM 68.0 °F 50.0 °F 52% 29.97 in 10.0 mi WNW 9.2 mph - N/A   Clear
9:55 AM 69.8 °F 48.2 °F 46% 29.96 in 10.0 mi WNW 8.1 mph - N/A   Clear
10:15 AM 69.8 °F 48.2 °F 46% 29.97 in 10.0 mi West 13.8 mph - N/A   Clear
10:35 AM 69.8 °F 48.2 °F 46% 29.97 in 10.0 mi West 10.4 mph - N/A   Clear
10:54 AM 71.6 °F 48.2 °F 43% 29.97 in 10.0 mi West 11.5 mph 16.1 mph N/A   Clear
11:15 AM 71.6 °F 48.2 °F 43% 29.97 in 10.0 mi West 10.4 mph 17.3 mph N/A   Clear
11:35 AM 71.6 °F 48.2 °F 43% 29.97 in 10.0 mi WNW 10.4 mph - N/A   Clear
11:55 AM 73.4 °F 48.2 °F 41% 29.96 in 10.0 mi West 13.8 mph - N/A   Clear
12:15 PM 73.4 °F 48.2 °F 41% 29.95 in 10.0 mi West 8.1 mph 16.1 mph N/A   Clear
12:35 PM 73.4 °F 48.2 °F 41% 29.94 in 10.0 mi WNW 9.2 mph - N/A   Clear
12:55 PM 73.4 °F 48.2 °F 41% 29.93 in 10.0 mi West 6.9 mph - N/A   Clear
1:15 PM 75.2 °F 48.2 °F 38% 29.93 in 10.0 mi WNW 5.8 mph - N/A   Clear
1:35 PM 75.2 °F 46.4 °F 36% 29.92 in 10.0 mi WNW 9.2 mph - N/A   Clear
1:55 PM 75.2 °F 46.4 °F 36% 29.92 in 10.0 mi WNW 10.4 mph - N/A   Clear
2:14 PM 77.0 °F 46.4 °F 34% 29.92 in 10.0 mi WNW 5.8 mph - N/A   Clear
2:55 PM 77.0 °F 48.2 °F 36% 29.91 in 10.0 mi WNW 9.2 mph - N/A   Clear
3:14 PM 78.8 °F 46.4 °F 32% 29.91 in 10.0 mi SW 6.9 mph - N/A   Clear
3:35 PM 77.0 °F 46.4 °F 34% 29.90 in 10.0 mi WNW 5.8 mph 9.2 mph N/A   Clear
3:55 PM 77.0 °F 46.4 °F 34% 29.90 in 10.0 mi West 9.2 mph - N/A   Clear
4:14 PM 77.0 °F 46.4 °F 34% 29.89 in 10.0 mi WSW 6.9 mph - N/A   Clear
4:35 PM 75.2 °F 46.4 °F 36% 29.89 in 10.0 mi West 8.1 mph - N/A   Clear
4:55 PM 75.2 °F 48.2 °F 38% 29.89 in 10.0 mi West 6.9 mph - N/A   Clear
5:15 PM 75.2 °F 48.2 °F 38% 29.90 in 10.0 mi West 5.8 mph - N/A   Clear
5:35 PM 75.2 °F 48.2 °F 38% 29.90 in 10.0 mi West 8.1 mph - N/A   Clear
5:55 PM 75.2 °F 48.2 °F 38% 29.89 in 10.0 mi West 8.1 mph - N/A   Clear
6:15 PM 73.4 °F 51.8 °F 47% 29.88 in 10.0 mi West 6.9 mph - N/A   Clear
6:35 PM 73.4 °F 50.0 °F 44% 29.86 in 10.0 mi West 6.9 mph - N/A   Clear
6:55 PM 73.4 °F 51.8 °F 47% 29.84 in 10.0 mi West 3.5 mph - N/A   Clear
7:15 PM 75.2 °F 51.8 °F 44% 29.83 in 10.0 mi West 3.5 mph - N/A   Clear
7:35 PM 73.4 °F 51.8 °F 47% 29.85 in 10.0 mi West 4.6 mph - N/A   Clear
7:55 PM 71.6 °F 53.6 °F 53% 29.86 in 10.0 mi Calm Calm - N/A   Clear
8:15 PM 69.8 °F 55.4 °F 60% 29.85 in 10.0 mi Calm Calm - N/A   Clear
8:35 PM 66.2 °F 57.2 °F 73% 29.85 in 10.0 mi Calm Calm - N/A   Clear
8:55 PM 66.2 °F 57.2 °F 73% 29.85 in 10.0 mi Calm Calm - N/A   Clear
9:15 PM 64.4 °F 57.2 °F 77% 29.85 in 10.0 mi Calm Calm - N/A   Clear
9:35 PM 62.6 °F 57.2 °F 82% 29.86 in 10.0 mi Calm Calm - N/A   Clear
10:15 PM 62.6 °F 57.2 °F 82% 29.86 in 10.0 mi Calm Calm - N/A   Clear
10:35 PM 60.8 °F 57.2 °F 88% 29.87 in 10.0 mi Calm Calm - N/A   Clear
10:54 PM 60.8 °F 57.2 °F 88% 29.87 in 10.0 mi Calm Calm - N/A   Clear
11:15 PM 60.8 °F 57.2 °F 88% 29.86 in 10.0 mi Calm Calm - N/A   Clear
11:35 PM 60.8 °F 57.2 °F 88% 29.85 in 10.0 mi Calm Calm - N/A   Clear